sensor_id;sensor_type;location;lat;lon;timestamp;temperature;humidity
55329;DHT22;41205;44.264;19.884;2024-01-30T13:53:21;205.50;1894.40
55329;DHT22;41205;44.264;19.884;2024-01-30T13:55:46;205.40;1920.00
55329;DHT22;41205;44.264;19.884;2024-01-30T13:58:12;205.40;1920.00
55329;DHT22;41205;44.264;19.884;2024-01-30T14:00:38;205.40;1920.00
55329;DHT22;41205;44.264;19.884;2024-01-30T14:03:04;205.50;1920.00
55329;DHT22;41205;44.264;19.884;2024-01-30T14:05:30;205.40;1920.00
55329;DHT22;41205;44.264;19.884;2024-01-30T14:07:57;205.40;1920.00
55329;DHT22;41205;44.264;19.884;2024-01-30T14:10:23;205.50;1945.60
55329;DHT22;41205;44.264;19.884;2024-01-30T14:12:49;205.40;1920.00
55329;DHT22;41205;44.264;19.884;2024-01-30T14:15:15;205.40;1945.60
55329;DHT22;41205;44.264;19.884;2024-01-30T14:17:44;205.60;1971.20
55329;DHT22;41205;44.264;19.884;2024-01-30T14:20:10;205.50;1971.20
55329;DHT22;41205;44.264;19.884;2024-01-30T14:22:36;205.60;1971.20
55329;DHT22;41205;44.264;19.884;2024-01-30T14:25:03;205.50;1945.60
55329;DHT22;41205;44.264;19.884;2024-01-30T14:27:30;205.30;1945.60
55329;DHT22;41205;44.264;19.884;2024-01-30T14:29:56;205.20;1971.20
55329;DHT22;41205;44.264;19.884;2024-01-30T14:32:23;205.20;1971.20
55329;DHT22;41205;44.264;19.884;2024-01-30T14:34:49;205.20;1971.20
55329;DHT22;41205;44.264;19.884;2024-01-30T14:37:15;205.20;1971.20
55329;DHT22;41205;44.264;19.884;2024-01-30T14:39:42;205.20;1971.20
55329;DHT22;41205;44.264;19.884;2024-01-30T14:42:08;205.10;1971.20
55329;DHT22;41205;44.264;19.884;2024-01-30T14:44:34;205.40;1971.20
55329;DHT22;41205;44.264;19.884;2024-01-30T14:47:00;205.30;1971.20
55329;DHT22;41205;44.264;19.884;2024-01-30T14:49:26;205.20;1971.20
55329;DHT22;41205;44.264;19.884;2024-01-30T14:51:52;205.10;1971.20
55329;DHT22;41205;44.264;19.884;2024-01-30T14:54:18;205.10;1996.80
55329;DHT22;41205;44.264;19.884;2024-01-30T14:56:44;204.90;1996.80
55329;DHT22;41205;44.264;19.884;2024-01-30T14:59:10;204.80;1996.80
55329;DHT22;41205;44.264;19.884;2024-01-30T15:01:36;204.80;1996.80
55329;DHT22;41205;44.264;19.884;2024-01-30T15:04:02;180.10;2022.40
55329;DHT22;41205;44.264;19.884;2024-01-30T15:06:28;204.80;2022.40
55329;DHT22;41205;44.264;19.884;2024-01-30T15:08:54;179.80;2022.40
55329;DHT22;41205;44.264;19.884;2024-01-30T15:11:20;179.90;2022.40
55329;DHT22;41205;44.264;19.884;2024-01-30T15:13:46;179.80;2048.00
55329;DHT22;41205;44.264;19.884;2024-01-30T15:16:12;179.80;2048.00
55329;DHT22;41205;44.264;19.884;2024-01-30T15:18:38;179.70;2073.60
55329;DHT22;41205;44.264;19.884;2024-01-30T15:21:04;179.60;2073.60
55329;DHT22;41205;44.264;19.884;2024-01-30T15:23:29;179.60;2099.20
55329;DHT22;41205;44.264;19.884;2024-01-30T15:25:55;179.50;2124.80
55329;DHT22;41205;44.264;19.884;2024-01-30T15:28:37;179.40;2124.80
55329;DHT22;41205;44.264;19.884;2024-01-30T15:31:04;179.40;2124.80
55329;DHT22;41205;44.264;19.884;2024-01-30T15:33:30;179.30;2150.40
55329;DHT22;41205;44.264;19.884;2024-01-30T15:35:57;179.30;2124.80
55329;DHT22;41205;44.264;19.884;2024-01-30T15:38:23;179.20;2150.40
55329;DHT22;41205;44.264;19.884;2024-01-30T15:40:49;179.20;2124.80
55329;DHT22;41205;44.264;19.884;2024-01-30T15:43:15;179.20;2124.80
55329;DHT22;41205;44.264;19.884;2024-01-30T15:45:41;154.50;2150.40
55329;DHT22;41205;44.264;19.884;2024-01-30T15:48:07;179.20;2150.40
55329;DHT22;41205;44.264;19.884;2024-01-30T15:50:33;154.40;2124.80
55329;DHT22;41205;44.264;19.884;2024-01-30T15:52:59;154.30;2124.80
55329;DHT22;41205;44.264;19.884;2024-01-30T15:55:25;154.30;2150.40
55329;DHT22;41205;44.264;19.884;2024-01-30T15:57:51;154.20;2150.40
55329;DHT22;41205;44.264;19.884;2024-01-30T16:00:16;154.10;2150.40
55329;DHT22;41205;44.264;19.884;2024-01-30T16:02:42;154.00;2201.60
55329;DHT22;41205;44.264;19.884;2024-01-30T16:05:08;154.10;2176.00
55329;DHT22;41205;44.264;19.884;2024-01-30T16:07:38;154.00;2176.00
55329;DHT22;41205;44.264;19.884;2024-01-30T16:10:04;153.90;2201.60
55329;DHT22;41205;44.264;19.884;2024-01-30T16:12:30;153.80;2201.60
55329;DHT22;41205;44.264;19.884;2024-01-30T16:14:56;153.80;2201.60
55329;DHT22;41205;44.264;19.884;2024-01-30T16:17:21;153.80;2176.00
55329;DHT22;41205;44.264;19.884;2024-01-30T16:19:48;153.80;2201.60
55329;DHT22;41205;44.264;19.884;2024-01-30T16:22:17;153.70;2201.60
55329;DHT22;41205;44.264;19.884;2024-01-30T16:24:43;153.70;2201.60
55329;DHT22;41205;44.264;19.884;2024-01-30T16:27:09;153.60;2227.20
55329;DHT22;41205;44.264;19.884;2024-01-30T16:29:35;153.60;2227.20
55329;DHT22;41205;44.264;19.884;2024-01-30T16:32:03;153.60;2227.20
55329;DHT22;41205;44.264;19.884;2024-01-30T16:34:29;128.90;2227.20
55329;DHT22;41205;44.264;19.884;2024-01-30T16:36:55;128.80;2252.80
55329;DHT22;41205;44.264;19.884;2024-01-30T16:39:21;128.60;2252.80
55329;DHT22;41205;44.264;19.884;2024-01-30T16:41:47;128.50;2252.80
55329;DHT22;41205;44.264;19.884;2024-01-30T16:44:12;128.40;2252.80
55329;DHT22;41205;44.264;19.884;2024-01-30T16:46:39;128.30;2252.80
55329;DHT22;41205;44.264;19.884;2024-01-30T16:49:05;128.20;2252.80
55329;DHT22;41205;44.264;19.884;2024-01-30T16:51:31;128.20;2252.80
55329;DHT22;41205;44.264;19.884;2024-01-30T16:53:57;128.20;2252.80
55329;DHT22;41205;44.264;19.884;2024-01-30T16:56:22;128.20;2252.80
55329;DHT22;41205;44.264;19.884;2024-01-30T16:58:48;128.10;2252.80
55329;DHT22;41205;44.264;19.884;2024-01-30T17:01:14;103.30;2227.20
55329;DHT22;41205;44.264;19.884;2024-01-30T17:03:40;103.30;2227.20
55329;DHT22;41205;44.264;19.884;2024-01-30T17:06:12;103.30;2227.20
55329;DHT22;41205;44.264;19.884;2024-01-30T17:08:39;103.20;2227.20
55329;DHT22;41205;44.264;19.884;2024-01-30T17:11:05;103.10;2227.20
55329;DHT22;41205;44.264;19.884;2024-01-30T17:13:31;102.90;2227.20
55329;DHT22;41205;44.264;19.884;2024-01-30T17:15:56;103.00;2227.20
55329;DHT22;41205;44.264;19.884;2024-01-30T17:18:23;103.00;2227.20
55329;DHT22;41205;44.264;19.884;2024-01-30T17:20:48;102.90;2227.20
55329;DHT22;41205;44.264;19.884;2024-01-30T17:23:14;102.90;2227.20
55329;DHT22;41205;44.264;19.884;2024-01-30T17:25:40;102.80;2227.20
55329;DHT22;41205;44.264;19.884;2024-01-30T17:28:06;102.80;2227.20
55329;DHT22;41205;44.264;19.884;2024-01-30T17:30:32;102.80;2227.20
55329;DHT22;41205;44.264;19.884;2024-01-30T17:32:57;102.80;2227.20
55329;DHT22;41205;44.264;19.884;2024-01-30T17:35:26;102.70;2227.20
55329;DHT22;41205;44.264;19.884;2024-01-30T17:37:51;102.70;2227.20
55329;DHT22;41205;44.264;19.884;2024-01-30T17:40:17;102.60;2227.20
55329;DHT22;41205;44.264;19.884;2024-01-30T17:42:44;102.40;2227.20
55329;DHT22;41205;44.264;19.884;2024-01-30T17:45:10;77.70;2227.20
55329;DHT22;41205;44.264;19.884;2024-01-30T17:47:37;77.60;2227.20
55329;DHT22;41205;44.264;19.884;2024-01-30T17:50:03;77.40;2227.20
55329;DHT22;41205;44.264;19.884;2024-01-30T17:52:29;77.30;2227.20
55329;DHT22;41205;44.264;19.884;2024-01-30T17:54:55;77.40;2227.20
55329;DHT22;41205;44.264;19.884;2024-01-30T17:57:21;77.40;2227.20
55329;DHT22;41205;44.264;19.884;2024-01-30T17:59:47;77.40;2227.20
55329;DHT22;41205;44.264;19.884;2024-01-30T18:02:13;77.50;2227.20
55329;DHT22;41205;44.264;19.884;2024-01-30T18:04:40;77.60;2227.20
55329;DHT22;41205;44.264;19.884;2024-01-30T18:07:07;77.50;2227.20
55329;DHT22;41205;44.264;19.884;2024-01-30T18:09:34;77.50;2227.20
55329;DHT22;41205;44.264;19.884;2024-01-30T18:12:00;77.50;2227.20
55329;DHT22;41205;44.264;19.884;2024-01-30T18:14:26;77.40;2227.20
55329;DHT22;41205;44.264;19.884;2024-01-30T18:16:52;77.40;2227.20
55329;DHT22;41205;44.264;19.884;2024-01-30T18:19:18;77.30;2227.20
55329;DHT22;41205;44.264;19.884;2024-01-30T18:21:44;77.20;2227.20
55329;DHT22;41205;44.264;19.884;2024-01-30T18:24:10;77.20;2227.20
55329;DHT22;41205;44.264;19.884;2024-01-30T18:26:36;77.00;2227.20
55329;DHT22;41205;44.264;19.884;2024-01-30T18:29:02;77.00;2227.20
55329;DHT22;41205;44.264;19.884;2024-01-30T18:31:28;77.00;2227.20
55329;DHT22;41205;44.264;19.884;2024-01-30T18:33:54;77.00;2227.20
55329;DHT22;41205;44.264;19.884;2024-01-30T18:36:21;76.90;2227.20
55329;DHT22;41205;44.264;19.884;2024-01-30T18:38:48;76.80;2227.20
55329;DHT22;41205;44.264;19.884;2024-01-30T18:41:15;52.10;2227.20
55329;DHT22;41205;44.264;19.884;2024-01-30T18:43:42;52.10;2227.20
55329;DHT22;41205;44.264;19.884;2024-01-30T18:46:09;52.10;2227.20
55329;DHT22;41205;44.264;19.884;2024-01-30T18:48:38;52.10;2227.20
55329;DHT22;41205;44.264;19.884;2024-01-30T18:51:13;52.10;2227.20
55329;DHT22;41205;44.264;19.884;2024-01-30T18:53:40;52.10;2227.20
55329;DHT22;41205;44.264;19.884;2024-01-30T18:56:06;51.90;2227.20
55329;DHT22;41205;44.264;19.884;2024-01-30T18:58:33;51.90;2227.20
55329;DHT22;41205;44.264;19.884;2024-01-30T19:00:59;51.90;2227.20
55329;DHT22;41205;44.264;19.884;2024-01-30T19:03:24;51.90;2227.20
55329;DHT22;41205;44.264;19.884;2024-01-30T19:05:51;51.80;2227.20
55329;DHT22;41205;44.264;19.884;2024-01-30T19:08:17;51.60;2227.20
55329;DHT22;41205;44.264;19.884;2024-01-30T19:10:43;51.30;2227.20
55329;DHT22;41205;44.264;19.884;2024-01-30T19:13:11;51.20;2227.20
55329;DHT22;41205;44.264;19.884;2024-01-30T19:15:38;51.20;2227.20
55329;DHT22;41205;44.264;19.884;2024-01-30T19:18:04;51.20;2227.20
55329;DHT22;41205;44.264;19.884;2024-01-30T19:20:30;51.30;2227.20
55329;DHT22;41205;44.264;19.884;2024-01-30T19:22:56;51.30;2227.20
55329;DHT22;41205;44.264;19.884;2024-01-30T19:25:23;51.20;2227.20
55329;DHT22;41205;44.264;19.884;2024-01-30T19:27:49;51.30;2227.20
55329;DHT22;41205;44.264;19.884;2024-01-30T19:30:14;51.20;2227.20
55329;DHT22;41205;44.264;19.884;2024-01-30T19:32:41;51.20;2227.20
55329;DHT22;41205;44.264;19.884;2024-01-30T19:35:07;51.30;2227.20
55329;DHT22;41205;44.264;19.884;2024-01-30T19:37:33;51.20;2227.20
55329;DHT22;41205;44.264;19.884;2024-01-30T19:40:01;51.20;2227.20
55329;DHT22;41205;44.264;19.884;2024-01-30T19:42:30;51.30;2227.20
55329;DHT22;41205;44.264;19.884;2024-01-30T19:44:55;51.30;2227.20
55329;DHT22;41205;44.264;19.884;2024-01-30T19:47:21;51.20;2227.20
55329;DHT22;41205;44.264;19.884;2024-01-30T19:49:47;51.30;2227.20
55329;DHT22;41205;44.264;19.884;2024-01-30T19:52:13;51.30;2227.20
55329;DHT22;41205;44.264;19.884;2024-01-30T19:54:40;26.50;2201.60
55329;DHT22;41205;44.264;19.884;2024-01-30T19:57:06;26.20;2201.60
55329;DHT22;41205;44.264;19.884;2024-01-30T19:59:32;26.00;2201.60
55329;DHT22;41205;44.264;19.884;2024-01-30T20:02:00;25.80;2201.60
55329;DHT22;41205;44.264;19.884;2024-01-30T20:04:26;25.90;2201.60
55329;DHT22;41205;44.264;19.884;2024-01-30T20:06:52;26.10;2201.60
55329;DHT22;41205;44.264;19.884;2024-01-30T20:09:18;26.10;2201.60
55329;DHT22;41205;44.264;19.884;2024-01-30T20:11:44;26.20;2201.60
55329;DHT22;41205;44.264;19.884;2024-01-30T20:14:10;26.20;2201.60
55329;DHT22;41205;44.264;19.884;2024-01-30T20:19:06;26.20;2201.60
55329;DHT22;41205;44.264;19.884;2024-01-30T20:21:36;26.30;2201.60
55329;DHT22;41205;44.264;19.884;2024-01-30T20:24:03;26.30;2201.60
55329;DHT22;41205;44.264;19.884;2024-01-30T20:26:29;26.30;2201.60
55329;DHT22;41205;44.264;19.884;2024-01-30T20:28:54;26.40;2201.60
55329;DHT22;41205;44.264;19.884;2024-01-30T20:31:21;26.40;2201.60
55329;DHT22;41205;44.264;19.884;2024-01-30T20:33:48;26.30;2201.60
55329;DHT22;41205;44.264;19.884;2024-01-30T20:36:17;26.10;2201.60
55329;DHT22;41205;44.264;19.884;2024-01-30T20:38:44;26.10;2201.60
55329;DHT22;41205;44.264;19.884;2024-01-30T20:41:10;26.10;2201.60
55329;DHT22;41205;44.264;19.884;2024-01-30T20:43:40;26.20;2201.60
55329;DHT22;41205;44.264;19.884;2024-01-30T20:46:07;26.20;2201.60
55329;DHT22;41205;44.264;19.884;2024-01-30T20:48:33;26.10;2201.60
55329;DHT22;41205;44.264;19.884;2024-01-30T20:50:59;25.90;2201.60
55329;DHT22;41205;44.264;19.884;2024-01-30T20:53:25;25.80;2201.60
55329;DHT22;41205;44.264;19.884;2024-01-30T20:55:51;25.90;2201.60
55329;DHT22;41205;44.264;19.884;2024-01-30T20:58:17;25.80;2201.60
55329;DHT22;41205;44.264;19.884;2024-01-30T21:00:43;25.80;2201.60
55329;DHT22;41205;44.264;19.884;2024-01-30T21:03:10;25.80;2201.60
55329;DHT22;41205;44.264;19.884;2024-01-30T21:05:36;25.60;2201.60
55329;DHT22;41205;44.264;19.884;2024-01-30T21:08:03;0.90;2201.60
55329;DHT22;41205;44.264;19.884;2024-01-30T21:10:29;0.90;2201.60
55329;DHT22;41205;44.264;19.884;2024-01-30T21:12:55;25.60;2201.60
55329;DHT22;41205;44.264;19.884;2024-01-30T21:15:21;25.60;2201.60
55329;DHT22;41205;44.264;19.884;2024-01-30T21:17:47;0.90;2201.60
55329;DHT22;41205;44.264;19.884;2024-01-30T21:20:13;0.80;2201.60
55329;DHT22;41205;44.264;19.884;2024-01-30T21:22:40;0.90;2201.60
55329;DHT22;41205;44.264;19.884;2024-01-30T21:25:06;25.70;2201.60
55329;DHT22;41205;44.264;19.884;2024-01-30T21:27:32;0.90;2201.60
55329;DHT22;41205;44.264;19.884;2024-01-30T21:29:58;25.60;2201.60
55329;DHT22;41205;44.264;19.884;2024-01-30T21:32:24;0.60;2201.60
55329;DHT22;41205;44.264;19.884;2024-01-30T21:34:50;0.40;2201.60
55329;DHT22;41205;44.264;19.884;2024-01-30T21:37:16;0.10;2201.60
55329;DHT22;41205;44.264;19.884;2024-01-30T21:39:42;0.10;2201.60
55329;DHT22;41205;44.264;19.884;2024-01-30T21:42:08;0.10;2201.60
55329;DHT22;41205;44.264;19.884;2024-01-30T21:44:34;0.10;2201.60
55329;DHT22;41205;44.264;19.884;2024-01-30T21:47:00;0.20;2201.60
55329;DHT22;41205;44.264;19.884;2024-01-30T21:49:25;0.70;2201.60
55329;DHT22;41205;44.264;19.884;2024-01-30T21:51:53;0.50;2201.60
55329;DHT22;41205;44.264;19.884;2024-01-30T21:54:19;0.60;2201.60
55329;DHT22;41205;44.264;19.884;2024-01-30T21:56:45;0.70;2201.60
55329;DHT22;41205;44.264;19.884;2024-01-30T21:59:11;0.70;2201.60
55329;DHT22;41205;44.264;19.884;2024-01-30T22:01:40;0.70;2201.60
55329;DHT22;41205;44.264;19.884;2024-01-30T22:04:06;0.50;2201.60
55329;DHT22;41205;44.264;19.884;2024-01-30T22:06:32;0.50;2201.60
55329;DHT22;41205;44.264;19.884;2024-01-30T22:12:20;0.60;2201.60
55329;DHT22;41205;44.264;19.884;2024-01-30T22:14:46;0.40;2201.60
55329;DHT22;41205;44.264;19.884;2024-01-30T22:17:12;0.30;2201.60
55329;DHT22;41205;44.264;19.884;2024-01-30T22:19:37;0.30;2201.60
55329;DHT22;41205;44.264;19.884;2024-01-30T22:22:03;0.40;2201.60
55329;DHT22;41205;44.264;19.884;2024-01-30T22:24:29;0.40;2201.60
55329;DHT22;41205;44.264;19.884;2024-01-30T22:26:55;0.20;2201.60
55329;DHT22;41205;44.264;19.884;2024-01-30T22:29:21;0.40;2201.60
55329;DHT22;41205;44.264;19.884;2024-01-30T22:31:47;0.50;2201.60
55329;DHT22;41205;44.264;19.884;2024-01-30T22:34:13;0.60;2201.60
55329;DHT22;41205;44.264;19.884;2024-01-30T22:36:39;0.40;2201.60
55329;DHT22;41205;44.264;19.884;2024-01-30T22:42:26;0.30;2201.60
55329;DHT22;41205;44.264;19.884;2024-01-30T22:44:52;0.40;2201.60
55329;DHT22;41205;44.264;19.884;2024-01-30T22:47:18;0.20;2201.60
55329;DHT22;41205;44.264;19.884;2024-01-30T22:49:44;0.20;2201.60
55329;DHT22;41205;44.264;19.884;2024-01-30T22:52:09;0.40;2201.60
55329;DHT22;41205;44.264;19.884;2024-01-30T22:54:35;0.30;2201.60
55329;DHT22;41205;44.264;19.884;2024-01-30T22:57:01;0.20;2201.60
55329;DHT22;41205;44.264;19.884;2024-01-30T22:59:27;0.30;2201.60
55329;DHT22;41205;44.264;19.884;2024-01-30T23:01:52;0.40;2201.60
55329;DHT22;41205;44.264;19.884;2024-01-30T23:04:18;0.40;2201.60
55329;DHT22;41205;44.264;19.884;2024-01-30T23:06:44;0.30;2201.60
55329;DHT22;41205;44.264;19.884;2024-01-30T23:12:32;0.20;2201.60
55329;DHT22;41205;44.264;19.884;2024-01-30T23:14:58;0.10;2201.60
55329;DHT22;41205;44.264;19.884;2024-01-30T23:17:25;0.10;2201.60
55329;DHT22;41205;44.264;19.884;2024-01-30T23:19:50;0.00;2201.60
55329;DHT22;41205;44.264;19.884;2024-01-30T23:22:16;0.00;2201.60
55329;DHT22;41205;44.264;19.884;2024-01-30T23:24:42;0.10;2201.60
55329;DHT22;41205;44.264;19.884;2024-01-30T23:27:08;0.10;2201.60
55329;DHT22;41205;44.264;19.884;2024-01-30T23:29:33;0.20;2201.60
55329;DHT22;41205;44.264;19.884;2024-01-30T23:31:59;0.20;2201.60
55329;DHT22;41205;44.264;19.884;2024-01-30T23:34:25;0.20;2201.60
55329;DHT22;41205;44.264;19.884;2024-01-30T23:36:51;0.20;2201.60
55329;DHT22;41205;44.264;19.884;2024-01-30T23:42:38;0.30;2201.60
55329;DHT22;41205;44.264;19.884;2024-01-30T23:45:05;0.20;2201.60
55329;DHT22;41205;44.264;19.884;2024-01-30T23:47:31;0.10;2201.60
55329;DHT22;41205;44.264;19.884;2024-01-30T23:49:57;0.10;2201.60
55329;DHT22;41205;44.264;19.884;2024-01-30T23:52:23;12.90;2201.60
55329;DHT22;41205;44.264;19.884;2024-01-30T23:58:11;13.00;2201.60
